< Typhoon 196204 1962 Season Typhoon 196206 >
Typhoon 196205 (JOAN)
General InformationTrack Information on Google Maps || Disaster Info.ResourceGoogle EarthGE AnimationAtom FeedGeoJSON
Detalied Best Track (Time Zone = UTC)
Year Month Day Hour Lat. Long. Pressure (hPa) Wind (kt) Class Image Chart
1962 7 6 18 19.8 130.2 1004 0 2 -- Chart
1962 7 7 00 20.0 130.0 1002 0 2 -- Chart
1962 7 7 06 21.1 129.9 994 0 9 -- Chart
1962 7 7 12 21.5 129.8 994 0 9 -- Chart
1962 7 7 18 21.8 129.7 990 0 9 -- Chart
1962 7 8 00 22.5 129.4 990 0 9 -- Chart
1962 7 8 06 23.2 128.7 990 0 9 -- Chart
1962 7 8 12 23.6 128.4 985 0 9 -- Chart
1962 7 8 18 24.3 127.8 985 0 9 -- Chart
1962 7 9 00 25.1 126.8 985 0 9 -- Chart
1962 7 9 06 26.3 126.0 985 0 9 -- Chart
1962 7 9 12 27.7 125.3 985 0 9 -- Chart
1962 7 9 18 29.3 124.8 985 0 9 -- Chart
1962 7 10 00 31.4 124.5 985 0 9 -- Chart
1962 7 10 06 33.7 124.8 992 0 9 -- Chart
1962 7 10 12 36.2 125.9 996 0 9 -- Chart
1962 7 10 18 37.5 129.6 1004 0 9 -- Chart
1962 7 11 00 41.0 133.0 1000 0 6 -- Chart
1962 7 11 06 42.5 135.5 1000 0 6 -- Chart
1962 7 11 12 43.3 137.0 1000 0 6 -- Chart
1962 7 11 18 45.6 139.0 996 0 6 -- Chart
1962 7 12 00 47.0 140.0 996 0 6 -- Chart
1962 7 12 06 48.4 141.7 997 0 6 -- Chart
1962 7 12 12 49.6 143.8 998 0 6 -- Chart
1962 7 12 18 51.3 145.2 1000 0 6 -- Chart
1962 7 13 00 52.4 146.5 1000 0 6 -- Chart
1962 7 13 06 53.0 147.0 1002 0 6 -- Chart
1962 7 13 12 54.0 148.1 1002 0 6 -- Chart
1962 7 13 18 55.4 148.0 1004 0 6 -- Chart
1962 7 14 00 57.0 148.0 1006 0 6 -- Chart
1962 7 14 06 58.0 150.0 1004 0 6 -- Chart
1962 7 14 12 60.0 152.0 1002 0 6 -- Chart
1962 7 14 18 61.0 155.0 1000 0 6 -- Chart
1962 7 15 00 62.8 158.0 1000 0 6 -- Chart
Japan Meteorological Agency Best Track Data | Correction Date : 1991-03-28
< Typhoon 196204 1962 Season Typhoon 196206 >

Help